sensor_id;sensor_type;location;lat;lon;timestamp;temperature;humidity
1063;DHT22;520;50.932;6.962;2023-02-11T00:00:22;9.20;97.70
1063;DHT22;520;50.932;6.962;2023-02-11T00:02:50;9.00;98.00
1063;DHT22;520;50.932;6.962;2023-02-11T00:05:17;9.20;98.40
1063;DHT22;520;50.932;6.962;2023-02-11T00:07:44;9.20;98.20
1063;DHT22;520;50.932;6.962;2023-02-11T00:10:10;9.00;98.20
1063;DHT22;520;50.932;6.962;2023-02-11T00:12:38;9.00;98.50
1063;DHT22;520;50.932;6.962;2023-02-11T00:15:06;9.00;98.60
1063;DHT22;520;50.932;6.962;2023-02-11T00:17:33;8.90;98.60
1063;DHT22;520;50.932;6.962;2023-02-11T00:20:00;9.10;98.70
1063;DHT22;520;50.932;6.962;2023-02-11T00:22:27;9.10;98.40
1063;DHT22;520;50.932;6.962;2023-02-11T00:24:54;8.90;98.50
1063;DHT22;520;50.932;6.962;2023-02-11T00:27:23;8.80;98.70
1063;DHT22;520;50.932;6.962;2023-02-11T00:29:50;8.70;98.90
1063;DHT22;520;50.932;6.962;2023-02-11T00:32:17;9.10;99.00
1063;DHT22;520;50.932;6.962;2023-02-11T00:34:43;9.50;98.30
1063;DHT22;520;50.932;6.962;2023-02-11T00:37:10;9.30;97.80
1063;DHT22;520;50.932;6.962;2023-02-11T00:39:38;9.40;98.00
1063;DHT22;520;50.932;6.962;2023-02-11T00:42:05;9.50;97.70
1063;DHT22;520;50.932;6.962;2023-02-11T00:44:32;9.20;97.60
1063;DHT22;520;50.932;6.962;2023-02-11T00:46:59;9.00;98.00
1063;DHT22;520;50.932;6.962;2023-02-11T00:49:26;8.90;98.60
1063;DHT22;520;50.932;6.962;2023-02-11T00:51:53;8.80;98.80
1063;DHT22;520;50.932;6.962;2023-02-11T00:54:20;8.70;99.10
1063;DHT22;520;50.932;6.962;2023-02-11T00:56:48;8.70;99.50
1063;DHT22;520;50.932;6.962;2023-02-11T00:59:14;8.80;99.50
1063;DHT22;520;50.932;6.962;2023-02-11T01:01:42;8.70;99.40
1063;DHT22;520;50.932;6.962;2023-02-11T01:04:09;8.60;99.60
1063;DHT22;520;50.932;6.962;2023-02-11T01:06:36;8.50;99.90
1063;DHT22;520;50.932;6.962;2023-02-11T01:09:03;8.40;99.90
1063;DHT22;520;50.932;6.962;2023-02-11T01:11:30;8.40;99.90
1063;DHT22;520;50.932;6.962;2023-02-11T01:13:57;8.40;99.90
1063;DHT22;520;50.932;6.962;2023-02-11T01:16:25;8.40;99.90
1063;DHT22;520;50.932;6.962;2023-02-11T01:18:52;8.40;99.90
1063;DHT22;520;50.932;6.962;2023-02-11T01:21:19;8.40;99.90
1063;DHT22;520;50.932;6.962;2023-02-11T01:23:46;8.40;99.90
1063;DHT22;520;50.932;6.962;2023-02-11T01:26:13;8.40;99.90
1063;DHT22;520;50.932;6.962;2023-02-11T01:28:40;8.40;99.90
1063;DHT22;520;50.932;6.962;2023-02-11T01:31:07;8.30;99.90
1063;DHT22;520;50.932;6.962;2023-02-11T01:33:34;8.30;99.90
1063;DHT22;520;50.932;6.962;2023-02-11T01:36:03;8.30;99.90
1063;DHT22;520;50.932;6.962;2023-02-11T01:38:31;8.30;99.90
1063;DHT22;520;50.932;6.962;2023-02-11T01:41:01;8.30;99.90
1063;DHT22;520;50.932;6.962;2023-02-11T01:43:32;8.20;99.90
1063;DHT22;520;50.932;6.962;2023-02-11T01:49:05;8.30;99.90
1063;DHT22;520;50.932;6.962;2023-02-11T01:54:10;8.30;99.90
1063;DHT22;520;50.932;6.962;2023-02-11T01:57:12;8.20;99.90
1063;DHT22;520;50.932;6.962;2023-02-11T02:00:10;8.20;99.90
1063;DHT22;520;50.932;6.962;2023-02-11T02:05:32;8.30;99.90
1063;DHT22;520;50.932;6.962;2023-02-11T02:08:24;8.30;99.90
1063;DHT22;520;50.932;6.962;2023-02-11T02:10:55;8.20;99.90
1063;DHT22;520;50.932;6.962;2023-02-11T02:13:24;8.20;99.90
1063;DHT22;520;50.932;6.962;2023-02-11T02:15:58;8.20;99.90
1063;DHT22;520;50.932;6.962;2023-02-11T02:35:00;8.30;99.90
1063;DHT22;520;50.932;6.962;2023-02-11T02:37:58;8.30;99.90
1063;DHT22;520;50.932;6.962;2023-02-11T02:40:31;8.20;99.90
1063;DHT22;520;50.932;6.962;2023-02-11T02:43:00;8.20;99.90
1063;DHT22;520;50.932;6.962;2023-02-11T02:45:28;8.20;99.90
1063;DHT22;520;50.932;6.962;2023-02-11T02:47:57;8.10;99.90
1063;DHT22;520;50.932;6.962;2023-02-11T02:50:27;8.10;99.90
1063;DHT22;520;50.932;6.962;2023-02-11T02:53:09;8.10;99.90
1063;DHT22;520;50.932;6.962;2023-02-11T02:59:03;8.00;99.90
1063;DHT22;520;50.932;6.962;2023-02-11T03:07:47;7.80;99.90
1063;DHT22;520;50.932;6.962;2023-02-11T03:10:21;7.80;99.90
1063;DHT22;520;50.932;6.962;2023-02-11T03:12:52;7.90;99.90
1063;DHT22;520;50.932;6.962;2023-02-11T03:15:22;7.90;99.90
1063;DHT22;520;50.932;6.962;2023-02-11T03:17:52;8.10;99.90
1063;DHT22;520;50.932;6.962;2023-02-11T03:20:21;8.00;99.90
1063;DHT22;520;50.932;6.962;2023-02-11T03:23:35;7.90;99.90
1063;DHT22;520;50.932;6.962;2023-02-11T03:28:54;8.00;99.90
1063;DHT22;520;50.932;6.962;2023-02-11T03:31:36;8.00;99.90
1063;DHT22;520;50.932;6.962;2023-02-11T03:34:10;8.10;99.90
1063;DHT22;520;50.932;6.962;2023-02-11T03:39:20;8.00;99.90
1063;DHT22;520;50.932;6.962;2023-02-11T03:41:48;7.90;99.90
1063;DHT22;520;50.932;6.962;2023-02-11T03:44:16;7.90;99.90
1063;DHT22;520;50.932;6.962;2023-02-11T03:46:49;7.90;99.90
1063;DHT22;520;50.932;6.962;2023-02-11T03:49:20;7.80;99.90
1063;DHT22;520;50.932;6.962;2023-02-11T03:51:50;7.80;99.90
1063;DHT22;520;50.932;6.962;2023-02-11T03:54:20;7.80;99.90
1063;DHT22;520;50.932;6.962;2023-02-11T03:56:52;7.80;99.90
1063;DHT22;520;50.932;6.962;2023-02-11T03:59:20;7.70;99.90
1063;DHT22;520;50.932;6.962;2023-02-11T04:01:47;7.70;99.90
1063;DHT22;520;50.932;6.962;2023-02-11T04:04:15;7.70;99.90
1063;DHT22;520;50.932;6.962;2023-02-11T04:06:45;7.90;99.90
1063;DHT22;520;50.932;6.962;2023-02-11T04:09:12;7.80;99.90
1063;DHT22;520;50.932;6.962;2023-02-11T04:11:39;7.80;99.90
1063;DHT22;520;50.932;6.962;2023-02-11T04:14:07;7.80;99.90
1063;DHT22;520;50.932;6.962;2023-02-11T04:16:34;8.00;99.90
1063;DHT22;520;50.932;6.962;2023-02-11T04:19:01;8.20;99.90
1063;DHT22;520;50.932;6.962;2023-02-11T04:21:28;8.20;99.90
1063;DHT22;520;50.932;6.962;2023-02-11T04:23:55;8.10;99.90
1063;DHT22;520;50.932;6.962;2023-02-11T04:26:22;8.00;99.90
1063;DHT22;520;50.932;6.962;2023-02-11T04:28:50;8.00;99.90
1063;DHT22;520;50.932;6.962;2023-02-11T04:31:18;7.90;99.90
1063;DHT22;520;50.932;6.962;2023-02-11T04:33:45;7.90;99.90
1063;DHT22;520;50.932;6.962;2023-02-11T04:36:12;8.00;99.90
1063;DHT22;520;50.932;6.962;2023-02-11T04:38:40;8.00;99.90
1063;DHT22;520;50.932;6.962;2023-02-11T04:41:08;7.90;99.90
1063;DHT22;520;50.932;6.962;2023-02-11T04:43:35;7.90;99.90
1063;DHT22;520;50.932;6.962;2023-02-11T04:46:02;8.40;99.90
1063;DHT22;520;50.932;6.962;2023-02-11T04:48:29;8.40;99.90
1063;DHT22;520;50.932;6.962;2023-02-11T04:50:57;8.20;99.90
1063;DHT22;520;50.932;6.962;2023-02-11T04:53:23;8.50;99.90
1063;DHT22;520;50.932;6.962;2023-02-11T04:55:50;8.70;99.90
1063;DHT22;520;50.932;6.962;2023-02-11T04:58:19;8.50;99.90
1063;DHT22;520;50.932;6.962;2023-02-11T05:00:46;8.30;99.90
1063;DHT22;520;50.932;6.962;2023-02-11T05:03:14;8.30;99.90
1063;DHT22;520;50.932;6.962;2023-02-11T05:05:42;8.60;99.90
1063;DHT22;520;50.932;6.962;2023-02-11T05:08:10;8.30;99.90
1063;DHT22;520;50.932;6.962;2023-02-11T05:10:37;8.20;99.90
1063;DHT22;520;50.932;6.962;2023-02-11T05:13:04;8.00;99.90
1063;DHT22;520;50.932;6.962;2023-02-11T05:15:31;8.00;99.90
1063;DHT22;520;50.932;6.962;2023-02-11T05:17:58;8.10;99.90
1063;DHT22;520;50.932;6.962;2023-02-11T05:20:24;8.00;99.90
1063;DHT22;520;50.932;6.962;2023-02-11T05:22:51;8.00;99.90
1063;DHT22;520;50.932;6.962;2023-02-11T05:25:19;8.10;99.90
1063;DHT22;520;50.932;6.962;2023-02-11T05:27:46;8.50;99.90
1063;DHT22;520;50.932;6.962;2023-02-11T05:30:13;8.30;99.90
1063;DHT22;520;50.932;6.962;2023-02-11T05:32:40;8.20;99.90
1063;DHT22;520;50.932;6.962;2023-02-11T05:35:07;8.10;99.90
1063;DHT22;520;50.932;6.962;2023-02-11T05:37:35;8.00;99.90
1063;DHT22;520;50.932;6.962;2023-02-11T05:40:03;7.90;99.90
1063;DHT22;520;50.932;6.962;2023-02-11T05:42:30;7.90;99.90
1063;DHT22;520;50.932;6.962;2023-02-11T05:44:56;7.90;99.90
1063;DHT22;520;50.932;6.962;2023-02-11T05:47:24;7.90;99.90
1063;DHT22;520;50.932;6.962;2023-02-11T05:49:52;7.90;99.90
1063;DHT22;520;50.932;6.962;2023-02-11T05:52:21;7.90;99.90
1063;DHT22;520;50.932;6.962;2023-02-11T05:54:49;7.90;99.90
1063;DHT22;520;50.932;6.962;2023-02-11T05:57:17;7.90;99.90
1063;DHT22;520;50.932;6.962;2023-02-11T05:59:44;7.80;99.90
1063;DHT22;520;50.932;6.962;2023-02-11T06:02:11;7.90;99.90
1063;DHT22;520;50.932;6.962;2023-02-11T06:04:38;7.90;99.90
1063;DHT22;520;50.932;6.962;2023-02-11T06:07:06;7.90;99.90
1063;DHT22;520;50.932;6.962;2023-02-11T06:09:33;7.90;99.90
1063;DHT22;520;50.932;6.962;2023-02-11T06:12:00;8.00;99.90
1063;DHT22;520;50.932;6.962;2023-02-11T06:14:27;7.90;99.90
1063;DHT22;520;50.932;6.962;2023-02-11T06:16:54;7.90;99.90
1063;DHT22;520;50.932;6.962;2023-02-11T06:19:21;7.90;99.90
1063;DHT22;520;50.932;6.962;2023-02-11T06:21:49;7.90;99.90
1063;DHT22;520;50.932;6.962;2023-02-11T06:24:15;7.90;99.90
1063;DHT22;520;50.932;6.962;2023-02-11T06:26:58;7.90;99.90
1063;DHT22;520;50.932;6.962;2023-02-11T06:29:25;7.90;99.90
1063;DHT22;520;50.932;6.962;2023-02-11T06:31:52;7.90;99.90
1063;DHT22;520;50.932;6.962;2023-02-11T06:34:20;8.00;99.90
1063;DHT22;520;50.932;6.962;2023-02-11T06:36:47;8.10;99.90
1063;DHT22;520;50.932;6.962;2023-02-11T06:39:13;8.10;99.90
1063;DHT22;520;50.932;6.962;2023-02-11T06:41:40;8.10;99.90
1063;DHT22;520;50.932;6.962;2023-02-11T06:44:08;8.10;99.90
1063;DHT22;520;50.932;6.962;2023-02-11T06:46:35;8.10;99.90
1063;DHT22;520;50.932;6.962;2023-02-11T06:49:02;8.10;99.90
1063;DHT22;520;50.932;6.962;2023-02-11T06:51:29;8.10;99.90
1063;DHT22;520;50.932;6.962;2023-02-11T06:53:56;8.00;99.90
1063;DHT22;520;50.932;6.962;2023-02-11T06:56:23;8.00;99.90
1063;DHT22;520;50.932;6.962;2023-02-11T06:58:53;7.90;99.90
1063;DHT22;520;50.932;6.962;2023-02-11T07:01:24;8.00;99.90
1063;DHT22;520;50.932;6.962;2023-02-11T07:03:52;7.90;99.90
1063;DHT22;520;50.932;6.962;2023-02-11T07:06:22;7.90;99.90
1063;DHT22;520;50.932;6.962;2023-02-11T07:08:50;8.00;99.90
1063;DHT22;520;50.932;6.962;2023-02-11T07:11:23;8.00;99.90
1063;DHT22;520;50.932;6.962;2023-02-11T07:13:52;8.00;99.90
1063;DHT22;520;50.932;6.962;2023-02-11T07:16:20;8.00;99.90
1063;DHT22;520;50.932;6.962;2023-02-11T07:18:47;8.00;99.90
1063;DHT22;520;50.932;6.962;2023-02-11T07:21:18;8.00;99.90
1063;DHT22;520;50.932;6.962;2023-02-11T07:23:45;8.00;99.90
1063;DHT22;520;50.932;6.962;2023-02-11T07:26:15;8.00;99.90
1063;DHT22;520;50.932;6.962;2023-02-11T07:28:43;8.00;99.90
1063;DHT22;520;50.932;6.962;2023-02-11T07:31:11;8.00;99.90
1063;DHT22;520;50.932;6.962;2023-02-11T07:33:39;8.00;99.90
1063;DHT22;520;50.932;6.962;2023-02-11T07:36:07;8.00;99.90
1063;DHT22;520;50.932;6.962;2023-02-11T07:38:36;8.10;99.90
1063;DHT22;520;50.932;6.962;2023-02-11T07:41:05;8.10;99.90
1063;DHT22;520;50.932;6.962;2023-02-11T07:43:33;8.10;99.90
1063;DHT22;520;50.932;6.962;2023-02-11T07:46:05;8.10;99.90
1063;DHT22;520;50.932;6.962;2023-02-11T07:48:33;8.30;99.90
1063;DHT22;520;50.932;6.962;2023-02-11T07:51:24;8.20;99.90
1063;DHT22;520;50.932;6.962;2023-02-11T07:53:52;8.10;99.90
1063;DHT22;520;50.932;6.962;2023-02-11T07:56:20;8.10;99.90
1063;DHT22;520;50.932;6.962;2023-02-11T07:58:47;8.00;99.90
1063;DHT22;520;50.932;6.962;2023-02-11T08:01:23;8.00;99.90
1063;DHT22;520;50.932;6.962;2023-02-11T08:03:57;8.00;99.90
1063;DHT22;520;50.932;6.962;2023-02-11T08:06:26;8.00;99.90
1063;DHT22;520;50.932;6.962;2023-02-11T08:08:54;8.00;99.90
1063;DHT22;520;50.932;6.962;2023-02-11T08:11:24;8.00;99.90
1063;DHT22;520;50.932;6.962;2023-02-11T08:13:52;8.10;99.90
1063;DHT22;520;50.932;6.962;2023-02-11T08:16:25;8.20;99.90
1063;DHT22;520;50.932;6.962;2023-02-11T08:18:54;8.10;99.90
1063;DHT22;520;50.932;6.962;2023-02-11T08:21:23;8.10;99.90
1063;DHT22;520;50.932;6.962;2023-02-11T08:23:51;8.10;99.90
1063;DHT22;520;50.932;6.962;2023-02-11T08:26:24;8.10;99.90
1063;DHT22;520;50.932;6.962;2023-02-11T08:28:53;8.10;99.90
1063;DHT22;520;50.932;6.962;2023-02-11T08:31:23;8.10;99.90
1063;DHT22;520;50.932;6.962;2023-02-11T08:33:51;8.10;99.90
1063;DHT22;520;50.932;6.962;2023-02-11T08:36:23;8.10;99.90
1063;DHT22;520;50.932;6.962;2023-02-11T08:38:54;8.10;99.90
1063;DHT22;520;50.932;6.962;2023-02-11T08:41:37;8.10;99.90
1063;DHT22;520;50.932;6.962;2023-02-11T08:44:05;8.20;99.90
1063;DHT22;520;50.932;6.962;2023-02-11T08:46:32;8.10;99.90
1063;DHT22;520;50.932;6.962;2023-02-11T08:49:00;8.10;99.90
1063;DHT22;520;50.932;6.962;2023-02-11T08:51:28;8.10;99.90
1063;DHT22;520;50.932;6.962;2023-02-11T08:53:57;8.10;99.90
1063;DHT22;520;50.932;6.962;2023-02-11T08:56:25;8.10;99.90
1063;DHT22;520;50.932;6.962;2023-02-11T08:58:53;8.10;99.90
1063;DHT22;520;50.932;6.962;2023-02-11T09:01:29;8.10;99.90
1063;DHT22;520;50.932;6.962;2023-02-11T09:03:57;8.10;99.90
1063;DHT22;520;50.932;6.962;2023-02-11T09:06:24;8.20;99.90
1063;DHT22;520;50.932;6.962;2023-02-11T09:08:54;8.20;99.90
1063;DHT22;520;50.932;6.962;2023-02-11T09:11:32;8.20;99.90
1063;DHT22;520;50.932;6.962;2023-02-11T09:14:00;8.20;99.90
1063;DHT22;520;50.932;6.962;2023-02-11T09:16:30;8.20;99.90
1063;DHT22;520;50.932;6.962;2023-02-11T09:18:59;8.20;99.90
1063;DHT22;520;50.932;6.962;2023-02-11T09:21:27;8.20;99.90
1063;DHT22;520;50.932;6.962;2023-02-11T09:23:55;8.20;99.90
1063;DHT22;520;50.932;6.962;2023-02-11T09:26:26;8.20;99.90
1063;DHT22;520;50.932;6.962;2023-02-11T09:28:54;8.20;99.90
1063;DHT22;520;50.932;6.962;2023-02-11T09:31:23;8.20;99.90
1063;DHT22;520;50.932;6.962;2023-02-11T09:33:55;8.20;99.90
1063;DHT22;520;50.932;6.962;2023-02-11T09:36:25;8.20;99.90
1063;DHT22;520;50.932;6.962;2023-02-11T09:38:55;8.30;99.90
1063;DHT22;520;50.932;6.962;2023-02-11T09:44:02;8.30;99.90
1063;DHT22;520;50.932;6.962;2023-02-11T09:46:33;8.30;99.90
1063;DHT22;520;50.932;6.962;2023-02-11T09:49:02;8.30;99.90
1063;DHT22;520;50.932;6.962;2023-02-11T09:51:49;8.30;99.90
1063;DHT22;520;50.932;6.962;2023-02-11T09:54:22;8.30;99.90
1063;DHT22;520;50.932;6.962;2023-02-11T09:56:52;8.30;99.90
1063;DHT22;520;50.932;6.962;2023-02-11T09:59:18;8.30;99.90
1063;DHT22;520;50.932;6.962;2023-02-11T10:02:01;8.40;99.90
1063;DHT22;520;50.932;6.962;2023-02-11T10:05:05;8.40;99.90
1063;DHT22;520;50.932;6.962;2023-02-11T10:07:45;8.40;99.90
1063;DHT22;520;50.932;6.962;2023-02-11T10:13:29;8.40;99.90
1063;DHT22;520;50.932;6.962;2023-02-11T10:16:24;8.40;99.90
1063;DHT22;520;50.932;6.962;2023-02-11T10:22:31;8.40;99.90
1063;DHT22;520;50.932;6.962;2023-02-11T10:24:57;8.50;99.90
1063;DHT22;520;50.932;6.962;2023-02-11T10:27:32;8.50;99.90
1063;DHT22;520;50.932;6.962;2023-02-11T10:30:35;8.50;99.90
1063;DHT22;520;50.932;6.962;2023-02-11T10:33:22;8.50;99.90
1063;DHT22;520;50.932;6.962;2023-02-11T10:35:50;8.50;99.90
1063;DHT22;520;50.932;6.962;2023-02-11T10:38:17;8.50;99.90
1063;DHT22;520;50.932;6.962;2023-02-11T10:40:44;8.50;99.90
1063;DHT22;520;50.932;6.962;2023-02-11T10:43:14;8.50;99.90
1063;DHT22;520;50.932;6.962;2023-02-11T10:45:49;8.40;99.90
1063;DHT22;520;50.932;6.962;2023-02-11T10:53:39;8.50;99.90
1063;DHT22;520;50.932;6.962;2023-02-11T10:56:07;8.50;99.90
1063;DHT22;520;50.932;6.962;2023-02-11T10:58:43;8.50;99.90
1063;DHT22;520;50.932;6.962;2023-02-11T11:01:12;8.50;99.90
1063;DHT22;520;50.932;6.962;2023-02-11T11:03:51;8.60;99.90
1063;DHT22;520;50.932;6.962;2023-02-11T11:06:31;8.60;99.90
1063;DHT22;520;50.932;6.962;2023-02-11T11:08:58;8.60;99.90
1063;DHT22;520;50.932;6.962;2023-02-11T11:11:26;8.60;99.90
1063;DHT22;520;50.932;6.962;2023-02-11T11:13:56;8.70;99.90
1063;DHT22;520;50.932;6.962;2023-02-11T11:16:24;8.60;99.90
1063;DHT22;520;50.932;6.962;2023-02-11T11:19:22;8.70;99.90
1063;DHT22;520;50.932;6.962;2023-02-11T11:21:54;8.70;99.90
1063;DHT22;520;50.932;6.962;2023-02-11T11:26:55;8.70;99.90
1063;DHT22;520;50.932;6.962;2023-02-11T11:29:26;8.60;99.90
1063;DHT22;520;50.932;6.962;2023-02-11T11:31:58;8.60;99.90
1063;DHT22;520;50.932;6.962;2023-02-11T11:37:11;8.60;99.90
1063;DHT22;520;50.932;6.962;2023-02-11T11:39:38;8.70;99.90
1063;DHT22;520;50.932;6.962;2023-02-11T11:42:27;8.70;99.90
1063;DHT22;520;50.932;6.962;2023-02-11T11:47:47;8.70;99.90
1063;DHT22;520;50.932;6.962;2023-02-11T11:56:12;8.80;99.90
1063;DHT22;520;50.932;6.962;2023-02-11T11:58:40;8.80;99.90
1063;DHT22;520;50.932;6.962;2023-02-11T12:03:57;8.80;99.90
1063;DHT22;520;50.932;6.962;2023-02-11T12:14:56;8.90;99.90
1063;DHT22;520;50.932;6.962;2023-02-11T12:17:49;9.00;99.90
1063;DHT22;520;50.932;6.962;2023-02-11T12:20:42;8.90;99.90
1063;DHT22;520;50.932;6.962;2023-02-11T12:31:42;8.80;99.90
1063;DHT22;520;50.932;6.962;2023-02-11T12:45:25;8.90;99.90
1063;DHT22;520;50.932;6.962;2023-02-11T12:48:17;8.90;99.90
1063;DHT22;520;50.932;6.962;2023-02-11T12:51:31;8.90;99.90
1063;DHT22;520;50.932;6.962;2023-02-11T12:54:27;8.90;99.90
1063;DHT22;520;50.932;6.962;2023-02-11T12:57:25;8.90;99.90
1063;DHT22;520;50.932;6.962;2023-02-11T13:05:39;9.00;99.90
1063;DHT22;520;50.932;6.962;2023-02-11T13:08:16;9.00;99.90
1063;DHT22;520;50.932;6.962;2023-02-11T13:10:56;9.00;99.90
1063;DHT22;520;50.932;6.962;2023-02-11T13:13:52;9.00;99.90
1063;DHT22;520;50.932;6.962;2023-02-11T13:19:34;9.00;99.90
1063;DHT22;520;50.932;6.962;2023-02-11T13:22:09;9.00;99.90
1063;DHT22;520;50.932;6.962;2023-02-11T13:25:05;9.00;99.90
1063;DHT22;520;50.932;6.962;2023-02-11T13:27:50;9.00;99.90
1063;DHT22;520;50.932;6.962;2023-02-11T13:35:35;9.00;99.90
1063;DHT22;520;50.932;6.962;2023-02-11T13:40:35;9.00;99.90
1063;DHT22;520;50.932;6.962;2023-02-11T13:43:05;9.00;99.90
1063;DHT22;520;50.932;6.962;2023-02-11T13:45:40;9.00;99.90
1063;DHT22;520;50.932;6.962;2023-02-11T13:48:19;9.00;99.90
1063;DHT22;520;50.932;6.962;2023-02-11T13:50:49;9.00;99.90
1063;DHT22;520;50.932;6.962;2023-02-11T13:53:18;9.00;99.90
1063;DHT22;520;50.932;6.962;2023-02-11T13:55:48;9.00;99.90
1063;DHT22;520;50.932;6.962;2023-02-11T13:58:32;9.00;99.90
1063;DHT22;520;50.932;6.962;2023-02-11T14:01:01;9.00;99.90
1063;DHT22;520;50.932;6.962;2023-02-11T14:03:30;9.00;99.90
1063;DHT22;520;50.932;6.962;2023-02-11T14:06:22;9.10;99.90
1063;DHT22;520;50.932;6.962;2023-02-11T14:12:30;9.10;99.90
1063;DHT22;520;50.932;6.962;2023-02-11T14:17:32;9.20;99.90
1063;DHT22;520;50.932;6.962;2023-02-11T14:20:02;9.20;99.90
1063;DHT22;520;50.932;6.962;2023-02-11T14:22:40;9.20;99.90
1063;DHT22;520;50.932;6.962;2023-02-11T14:25:22;9.20;99.90
1063;DHT22;520;50.932;6.962;2023-02-11T14:28:01;9.20;99.90
1063;DHT22;520;50.932;6.962;2023-02-11T14:30:42;9.20;99.90
1063;DHT22;520;50.932;6.962;2023-02-11T14:42:17;9.20;99.90
1063;DHT22;520;50.932;6.962;2023-02-11T14:44:48;9.20;99.90
1063;DHT22;520;50.932;6.962;2023-02-11T14:48:04;9.20;99.90
1063;DHT22;520;50.932;6.962;2023-02-11T14:50:25;9.30;99.90
1063;DHT22;520;50.932;6.962;2023-02-11T14:52:53;9.30;99.90
1063;DHT22;520;50.932;6.962;2023-02-11T14:55:38;9.40;99.90
1063;DHT22;520;50.932;6.962;2023-02-11T14:58:12;9.40;99.90
1063;DHT22;520;50.932;6.962;2023-02-11T15:00:52;9.40;99.90
1063;DHT22;520;50.932;6.962;2023-02-11T15:03:37;9.40;99.90
1063;DHT22;520;50.932;6.962;2023-02-11T15:06:18;9.40;99.90
1063;DHT22;520;50.932;6.962;2023-02-11T15:08:50;9.40;99.90
1063;DHT22;520;50.932;6.962;2023-02-11T15:11:20;9.50;99.90
1063;DHT22;520;50.932;6.962;2023-02-11T15:13:49;9.50;99.90
1063;DHT22;520;50.932;6.962;2023-02-11T15:16:23;9.40;99.90
1063;DHT22;520;50.932;6.962;2023-02-11T15:18:55;9.40;99.90
1063;DHT22;520;50.932;6.962;2023-02-11T15:21:28;9.40;99.90
1063;DHT22;520;50.932;6.962;2023-02-11T15:23:59;9.40;99.90
1063;DHT22;520;50.932;6.962;2023-02-11T15:26:26;9.50;99.90
1063;DHT22;520;50.932;6.962;2023-02-11T15:28:53;9.40;99.90
1063;DHT22;520;50.932;6.962;2023-02-11T15:31:23;9.50;99.90
1063;DHT22;520;50.932;6.962;2023-02-11T15:33:51;9.50;99.90
1063;DHT22;520;50.932;6.962;2023-02-11T15:36:21;9.50;99.90
1063;DHT22;520;50.932;6.962;2023-02-11T15:39:45;9.50;99.90
1063;DHT22;520;50.932;6.962;2023-02-11T15:42:20;9.50;99.90
1063;DHT22;520;50.932;6.962;2023-02-11T15:44:49;9.50;99.90
1063;DHT22;520;50.932;6.962;2023-02-11T15:47:33;9.50;99.90
1063;DHT22;520;50.932;6.962;2023-02-11T15:50:00;9.50;99.90
1063;DHT22;520;50.932;6.962;2023-02-11T15:52:28;9.40;99.90
1063;DHT22;520;50.932;6.962;2023-02-11T15:54:57;9.40;99.90
1063;DHT22;520;50.932;6.962;2023-02-11T15:57:26;9.40;99.90
1063;DHT22;520;50.932;6.962;2023-02-11T15:59:53;9.40;99.90
1063;DHT22;520;50.932;6.962;2023-02-11T16:02:30;9.40;99.90
1063;DHT22;520;50.932;6.962;2023-02-11T16:05:03;9.40;99.90
1063;DHT22;520;50.932;6.962;2023-02-11T16:12:53;9.40;99.90
1063;DHT22;520;50.932;6.962;2023-02-11T16:17:56;9.40;99.90
1063;DHT22;520;50.932;6.962;2023-02-11T16:20:23;9.40;99.90
1063;DHT22;520;50.932;6.962;2023-02-11T16:22:50;9.40;99.90
1063;DHT22;520;50.932;6.962;2023-02-11T16:25:18;9.40;99.90
1063;DHT22;520;50.932;6.962;2023-02-11T16:27:48;9.50;99.90
1063;DHT22;520;50.932;6.962;2023-02-11T16:30:33;9.50;99.90
1063;DHT22;520;50.932;6.962;2023-02-11T16:33:00;9.50;99.90
1063;DHT22;520;50.932;6.962;2023-02-11T16:35:27;9.50;99.90
1063;DHT22;520;50.932;6.962;2023-02-11T16:37:53;9.50;99.90
1063;DHT22;520;50.932;6.962;2023-02-11T16:40:21;9.50;99.90
1063;DHT22;520;50.932;6.962;2023-02-11T16:42:49;9.50;99.90
1063;DHT22;520;50.932;6.962;2023-02-11T16:45:18;9.50;99.90
1063;DHT22;520;50.932;6.962;2023-02-11T16:47:44;9.50;99.90
1063;DHT22;520;50.932;6.962;2023-02-11T16:50:20;9.50;99.90
1063;DHT22;520;50.932;6.962;2023-02-11T16:52:48;9.50;99.90
1063;DHT22;520;50.932;6.962;2023-02-11T16:55:15;9.60;99.90
1063;DHT22;520;50.932;6.962;2023-02-11T16:57:41;9.50;99.90
1063;DHT22;520;50.932;6.962;2023-02-11T17:00:09;9.50;99.90
1063;DHT22;520;50.932;6.962;2023-02-11T17:02:37;9.50;99.90
1063;DHT22;520;50.932;6.962;2023-02-11T17:05:06;9.50;99.90
1063;DHT22;520;50.932;6.962;2023-02-11T17:07:33;9.50;99.90
1063;DHT22;520;50.932;6.962;2023-02-11T17:10:00;9.40;99.90
1063;DHT22;520;50.932;6.962;2023-02-11T17:12:27;9.40;99.90
1063;DHT22;520;50.932;6.962;2023-02-11T17:14:54;9.50;99.90
1063;DHT22;520;50.932;6.962;2023-02-11T17:17:20;9.50;99.90
1063;DHT22;520;50.932;6.962;2023-02-11T17:19:49;9.50;99.90
1063;DHT22;520;50.932;6.962;2023-02-11T17:22:16;9.50;99.90
1063;DHT22;520;50.932;6.962;2023-02-11T17:24:43;9.50;99.90
1063;DHT22;520;50.932;6.962;2023-02-11T17:27:11;9.50;99.90
1063;DHT22;520;50.932;6.962;2023-02-11T17:29:37;9.50;99.90
1063;DHT22;520;50.932;6.962;2023-02-11T17:32:04;9.50;99.90
1063;DHT22;520;50.932;6.962;2023-02-11T17:34:40;9.50;99.90
1063;DHT22;520;50.932;6.962;2023-02-11T17:37:14;9.60;99.90
1063;DHT22;520;50.932;6.962;2023-02-11T17:39:44;10.10;99.90
1063;DHT22;520;50.932;6.962;2023-02-11T17:42:26;10.40;99.90
1063;DHT22;520;50.932;6.962;2023-02-11T17:44:53;10.10;99.90
1063;DHT22;520;50.932;6.962;2023-02-11T17:47:19;10.30;99.90
1063;DHT22;520;50.932;6.962;2023-02-11T17:49:46;10.50;99.90
1063;DHT22;520;50.932;6.962;2023-02-11T17:52:14;10.50;99.90
1063;DHT22;520;50.932;6.962;2023-02-11T17:54:42;10.40;99.90
1063;DHT22;520;50.932;6.962;2023-02-11T17:57:11;10.30;99.90
1063;DHT22;520;50.932;6.962;2023-02-11T17:59:38;10.40;99.90
1063;DHT22;520;50.932;6.962;2023-02-11T18:02:05;10.50;99.90
1063;DHT22;520;50.932;6.962;2023-02-11T18:04:33;10.40;99.90
1063;DHT22;520;50.932;6.962;2023-02-11T18:06:59;10.40;99.90
1063;DHT22;520;50.932;6.962;2023-02-11T18:09:26;10.20;99.90
1063;DHT22;520;50.932;6.962;2023-02-11T18:11:53;10.30;99.90
1063;DHT22;520;50.932;6.962;2023-02-11T18:14:20;10.30;99.90
1063;DHT22;520;50.932;6.962;2023-02-11T18:16:50;10.20;99.90
1063;DHT22;520;50.932;6.962;2023-02-11T18:19:18;10.10;99.90
1063;DHT22;520;50.932;6.962;2023-02-11T18:21:45;9.90;99.90
1063;DHT22;520;50.932;6.962;2023-02-11T18:24:14;9.80;99.90
1063;DHT22;520;50.932;6.962;2023-02-11T18:26:41;9.90;99.90
1063;DHT22;520;50.932;6.962;2023-02-11T18:29:08;9.90;99.90
1063;DHT22;520;50.932;6.962;2023-02-11T18:31:35;10.00;99.90
1063;DHT22;520;50.932;6.962;2023-02-11T18:34:04;10.00;99.90
1063;DHT22;520;50.932;6.962;2023-02-11T18:36:33;9.80;99.90
1063;DHT22;520;50.932;6.962;2023-02-11T18:38:59;9.60;99.90
1063;DHT22;520;50.932;6.962;2023-02-11T18:41:26;9.60;99.90
1063;DHT22;520;50.932;6.962;2023-02-11T18:43:53;9.50;99.90
1063;DHT22;520;50.932;6.962;2023-02-11T18:46:22;9.50;99.90
1063;DHT22;520;50.932;6.962;2023-02-11T18:48:49;9.40;99.90
1063;DHT22;520;50.932;6.962;2023-02-11T18:51:21;9.40;99.90
1063;DHT22;520;50.932;6.962;2023-02-11T18:53:49;9.40;99.90
1063;DHT22;520;50.932;6.962;2023-02-11T18:56:18;9.40;99.90
1063;DHT22;520;50.932;6.962;2023-02-11T18:58:47;9.40;99.90
1063;DHT22;520;50.932;6.962;2023-02-11T19:01:17;9.40;99.90
1063;DHT22;520;50.932;6.962;2023-02-11T19:03:44;9.40;99.90
1063;DHT22;520;50.932;6.962;2023-02-11T19:06:19;9.30;99.90
1063;DHT22;520;50.932;6.962;2023-02-11T19:08:46;9.40;99.90
1063;DHT22;520;50.932;6.962;2023-02-11T19:11:15;9.30;99.90
1063;DHT22;520;50.932;6.962;2023-02-11T19:13:44;9.40;99.90
1063;DHT22;520;50.932;6.962;2023-02-11T19:16:13;9.30;99.90
1063;DHT22;520;50.932;6.962;2023-02-11T19:18:42;9.30;99.90